sensor_id;sensor_type;location;lat;lon;timestamp;temperature;humidity
59977;DHT22;45837;51.076;3.578;2023-02-03T00:01:13;20.00;57.70
59977;DHT22;45837;51.076;3.578;2023-02-03T00:03:38;19.90;57.70
59977;DHT22;45837;51.076;3.578;2023-02-03T00:06:05;19.90;57.60
59977;DHT22;45837;51.076;3.578;2023-02-03T00:08:31;19.90;57.60
59977;DHT22;45837;51.076;3.578;2023-02-03T00:10:57;19.90;57.60
59977;DHT22;45837;51.076;3.578;2023-02-03T00:13:23;19.80;57.50
59977;DHT22;45837;51.076;3.578;2023-02-03T00:15:50;20.00;57.60
59977;DHT22;45837;51.076;3.578;2023-02-03T00:18:16;19.90;57.50
59977;DHT22;45837;51.076;3.578;2023-02-03T00:20:41;19.90;57.70
59977;DHT22;45837;51.076;3.578;2023-02-03T00:23:08;19.90;57.40
59977;DHT22;45837;51.076;3.578;2023-02-03T00:25:34;19.80;57.40
59977;DHT22;45837;51.076;3.578;2023-02-03T00:27:59;19.80;57.40
59977;DHT22;45837;51.076;3.578;2023-02-03T00:30:25;19.80;57.30
59977;DHT22;45837;51.076;3.578;2023-02-03T00:32:51;19.80;57.50
59977;DHT22;45837;51.076;3.578;2023-02-03T00:35:17;19.80;57.50
59977;DHT22;45837;51.076;3.578;2023-02-03T00:37:43;19.80;57.40
59977;DHT22;45837;51.076;3.578;2023-02-03T00:40:08;19.80;57.50
59977;DHT22;45837;51.076;3.578;2023-02-03T00:42:34;19.70;57.30
59977;DHT22;45837;51.076;3.578;2023-02-03T00:45:01;19.70;58.00
59977;DHT22;45837;51.076;3.578;2023-02-03T00:47:27;19.70;57.50
59977;DHT22;45837;51.076;3.578;2023-02-03T00:49:53;19.70;57.30
59977;DHT22;45837;51.076;3.578;2023-02-03T00:52:18;19.70;57.40
59977;DHT22;45837;51.076;3.578;2023-02-03T00:54:44;19.70;57.30
59977;DHT22;45837;51.076;3.578;2023-02-03T00:57:10;19.70;57.20
59977;DHT22;45837;51.076;3.578;2023-02-03T00:59:37;19.70;57.30
59977;DHT22;45837;51.076;3.578;2023-02-03T01:02:03;19.70;57.20
59977;DHT22;45837;51.076;3.578;2023-02-03T01:04:29;19.60;57.10
59977;DHT22;45837;51.076;3.578;2023-02-03T01:06:55;19.60;57.70
59977;DHT22;45837;51.076;3.578;2023-02-03T01:09:22;19.60;57.10
59977;DHT22;45837;51.076;3.578;2023-02-03T01:11:48;19.60;57.10
59977;DHT22;45837;51.076;3.578;2023-02-03T01:14:14;19.60;57.00
59977;DHT22;45837;51.076;3.578;2023-02-03T01:16:40;19.60;57.00
59977;DHT22;45837;51.076;3.578;2023-02-03T01:19:05;19.60;57.10
59977;DHT22;45837;51.076;3.578;2023-02-03T01:21:31;19.60;57.10
59977;DHT22;45837;51.076;3.578;2023-02-03T01:23:58;19.60;56.90
59977;DHT22;45837;51.076;3.578;2023-02-03T01:26:24;19.60;56.90
59977;DHT22;45837;51.076;3.578;2023-02-03T01:28:57;19.60;56.90
59977;DHT22;45837;51.076;3.578;2023-02-03T01:31:24;19.60;56.80
59977;DHT22;45837;51.076;3.578;2023-02-03T01:33:51;19.60;56.80
59977;DHT22;45837;51.076;3.578;2023-02-03T01:36:17;19.60;56.80
59977;DHT22;45837;51.076;3.578;2023-02-03T01:38:43;19.50;56.70
59977;DHT22;45837;51.076;3.578;2023-02-03T01:41:10;19.50;56.70
59977;DHT22;45837;51.076;3.578;2023-02-03T01:43:40;19.60;56.70
59977;DHT22;45837;51.076;3.578;2023-02-03T01:46:14;19.50;56.70
59977;DHT22;45837;51.076;3.578;2023-02-03T01:48:41;19.50;56.70
59977;DHT22;45837;51.076;3.578;2023-02-03T01:51:07;19.50;56.70
59977;DHT22;45837;51.076;3.578;2023-02-03T01:53:33;19.50;56.70
59977;DHT22;45837;51.076;3.578;2023-02-03T01:55:59;19.50;56.60
59977;DHT22;45837;51.076;3.578;2023-02-03T01:58:30;19.50;56.60
59977;DHT22;45837;51.076;3.578;2023-02-03T02:00:57;19.40;56.50
59977;DHT22;45837;51.076;3.578;2023-02-03T02:03:38;19.40;56.50
59977;DHT22;45837;51.076;3.578;2023-02-03T02:06:06;19.40;56.50
59977;DHT22;45837;51.076;3.578;2023-02-03T02:08:32;19.40;56.50
59977;DHT22;45837;51.076;3.578;2023-02-03T02:10:58;19.40;56.50
59977;DHT22;45837;51.076;3.578;2023-02-03T02:13:25;19.40;56.50
59977;DHT22;45837;51.076;3.578;2023-02-03T02:21:55;19.40;56.40
59977;DHT22;45837;51.076;3.578;2023-02-03T02:26:59;19.40;56.40
59977;DHT22;45837;51.076;3.578;2023-02-03T02:37:09;19.30;56.40
59977;DHT22;45837;51.076;3.578;2023-02-03T02:44:40;19.30;56.30
59977;DHT22;45837;51.076;3.578;2023-02-03T02:47:10;19.30;56.30
59977;DHT22;45837;51.076;3.578;2023-02-03T02:52:25;19.30;56.20
59977;DHT22;45837;51.076;3.578;2023-02-03T02:54:52;19.30;56.20
59977;DHT22;45837;51.076;3.578;2023-02-03T02:57:21;19.30;56.30
59977;DHT22;45837;51.076;3.578;2023-02-03T02:59:49;19.30;56.30
59977;DHT22;45837;51.076;3.578;2023-02-03T03:02:14;19.30;56.30
59977;DHT22;45837;51.076;3.578;2023-02-03T03:04:41;19.30;56.20
59977;DHT22;45837;51.076;3.578;2023-02-03T03:07:11;19.20;56.20
59977;DHT22;45837;51.076;3.578;2023-02-03T03:09:39;19.20;56.10
59977;DHT22;45837;51.076;3.578;2023-02-03T03:12:22;19.20;56.20
59977;DHT22;45837;51.076;3.578;2023-02-03T03:15:10;19.20;56.10
59977;DHT22;45837;51.076;3.578;2023-02-03T03:17:39;19.20;56.10
59977;DHT22;45837;51.076;3.578;2023-02-03T03:20:07;19.20;56.10
59977;DHT22;45837;51.076;3.578;2023-02-03T03:22:36;19.20;56.00
59977;DHT22;45837;51.076;3.578;2023-02-03T03:25:27;19.20;56.00
59977;DHT22;45837;51.076;3.578;2023-02-03T03:27:51;19.20;56.00
59977;DHT22;45837;51.076;3.578;2023-02-03T03:30:22;19.20;56.00
59977;DHT22;45837;51.076;3.578;2023-02-03T03:32:49;19.20;56.00
59977;DHT22;45837;51.076;3.578;2023-02-03T03:35:15;19.20;56.00
59977;DHT22;45837;51.076;3.578;2023-02-03T03:38:03;19.20;56.00
59977;DHT22;45837;51.076;3.578;2023-02-03T03:40:44;19.20;56.00
59977;DHT22;45837;51.076;3.578;2023-02-03T03:43:18;19.20;56.00
59977;DHT22;45837;51.076;3.578;2023-02-03T03:45:46;19.10;55.90
59977;DHT22;45837;51.076;3.578;2023-02-03T03:48:15;19.10;55.90
59977;DHT22;45837;51.076;3.578;2023-02-03T03:50:46;19.10;55.90
59977;DHT22;45837;51.076;3.578;2023-02-03T03:53:14;19.10;55.90
59977;DHT22;45837;51.076;3.578;2023-02-03T03:55:41;19.10;55.90
59977;DHT22;45837;51.076;3.578;2023-02-03T03:58:12;19.10;55.90
59977;DHT22;45837;51.076;3.578;2023-02-03T04:00:39;19.10;55.90
59977;DHT22;45837;51.076;3.578;2023-02-03T04:03:07;19.10;56.40
59977;DHT22;45837;51.076;3.578;2023-02-03T04:05:35;19.10;55.90
59977;DHT22;45837;51.076;3.578;2023-02-03T04:08:02;19.10;55.90
59977;DHT22;45837;51.076;3.578;2023-02-03T04:10:33;19.10;55.80
59977;DHT22;45837;51.076;3.578;2023-02-03T04:12:59;19.00;55.80
59977;DHT22;45837;51.076;3.578;2023-02-03T04:15:24;19.00;55.70
59977;DHT22;45837;51.076;3.578;2023-02-03T04:17:50;19.00;55.80
59977;DHT22;45837;51.076;3.578;2023-02-03T04:20:16;19.00;55.80
59977;DHT22;45837;51.076;3.578;2023-02-03T04:22:45;19.00;55.70
59977;DHT22;45837;51.076;3.578;2023-02-03T04:25:11;19.00;55.80
59977;DHT22;45837;51.076;3.578;2023-02-03T04:27:37;19.00;55.70
59977;DHT22;45837;51.076;3.578;2023-02-03T04:30:03;19.00;55.70
59977;DHT22;45837;51.076;3.578;2023-02-03T04:32:29;19.00;55.70
59977;DHT22;45837;51.076;3.578;2023-02-03T04:34:55;19.00;55.70
59977;DHT22;45837;51.076;3.578;2023-02-03T04:37:22;19.00;55.70
59977;DHT22;45837;51.076;3.578;2023-02-03T04:39:48;19.00;55.70
59977;DHT22;45837;51.076;3.578;2023-02-03T04:42:15;19.00;55.70
59977;DHT22;45837;51.076;3.578;2023-02-03T04:44:41;19.00;55.70
59977;DHT22;45837;51.076;3.578;2023-02-03T04:47:07;18.90;55.70
59977;DHT22;45837;51.076;3.578;2023-02-03T04:49:32;19.00;55.60
59977;DHT22;45837;51.076;3.578;2023-02-03T04:51:58;19.00;55.70
59977;DHT22;45837;51.076;3.578;2023-02-03T04:54:24;18.90;55.60
59977;DHT22;45837;51.076;3.578;2023-02-03T04:56:50;18.90;55.70
59977;DHT22;45837;51.076;3.578;2023-02-03T04:59:15;18.90;55.60
59977;DHT22;45837;51.076;3.578;2023-02-03T05:01:41;18.90;55.60
59977;DHT22;45837;51.076;3.578;2023-02-03T05:04:06;19.00;55.60
59977;DHT22;45837;51.076;3.578;2023-02-03T05:06:32;18.90;55.60
59977;DHT22;45837;51.076;3.578;2023-02-03T05:08:58;19.00;55.60
59977;DHT22;45837;51.076;3.578;2023-02-03T05:11:24;18.90;55.60
59977;DHT22;45837;51.076;3.578;2023-02-03T05:13:50;18.90;55.60
59977;DHT22;45837;51.076;3.578;2023-02-03T05:16:15;18.90;55.60
59977;DHT22;45837;51.076;3.578;2023-02-03T05:18:41;18.90;55.60
59977;DHT22;45837;51.076;3.578;2023-02-03T05:21:07;18.90;55.60
59977;DHT22;45837;51.076;3.578;2023-02-03T05:23:33;18.90;55.60
59977;DHT22;45837;51.076;3.578;2023-02-03T05:25:58;18.90;55.50
59977;DHT22;45837;51.076;3.578;2023-02-03T05:28:24;18.90;55.60
59977;DHT22;45837;51.076;3.578;2023-02-03T05:30:50;18.90;55.60
59977;DHT22;45837;51.076;3.578;2023-02-03T05:33:15;18.90;55.50
59977;DHT22;45837;51.076;3.578;2023-02-03T05:35:41;18.80;55.50
59977;DHT22;45837;51.076;3.578;2023-02-03T05:38:07;18.80;55.40
59977;DHT22;45837;51.076;3.578;2023-02-03T05:40:32;18.80;55.40
59977;DHT22;45837;51.076;3.578;2023-02-03T05:43:17;18.90;55.50
59977;DHT22;45837;51.076;3.578;2023-02-03T05:45:43;18.80;55.50
59977;DHT22;45837;51.076;3.578;2023-02-03T05:48:08;18.80;55.50
59977;DHT22;45837;51.076;3.578;2023-02-03T05:50:34;18.80;55.50
59977;DHT22;45837;51.076;3.578;2023-02-03T05:53:06;18.80;55.50
59977;DHT22;45837;51.076;3.578;2023-02-03T05:55:32;18.80;55.60
59977;DHT22;45837;51.076;3.578;2023-02-03T05:57:58;18.80;55.30
59977;DHT22;45837;51.076;3.578;2023-02-03T06:00:25;18.70;54.00
59977;DHT22;45837;51.076;3.578;2023-02-03T06:02:51;18.70;53.90
59977;DHT22;45837;51.076;3.578;2023-02-03T06:05:17;18.70;54.60
59977;DHT22;45837;51.076;3.578;2023-02-03T06:07:43;18.70;55.70
59977;DHT22;45837;51.076;3.578;2023-02-03T06:10:09;18.70;56.30
59977;DHT22;45837;51.076;3.578;2023-02-03T06:12:36;18.80;56.60
59977;DHT22;45837;51.076;3.578;2023-02-03T06:15:02;18.80;56.70
59977;DHT22;45837;51.076;3.578;2023-02-03T06:17:27;18.90;56.90
59977;DHT22;45837;51.076;3.578;2023-02-03T06:19:53;18.90;56.70
59977;DHT22;45837;51.076;3.578;2023-02-03T06:22:19;19.00;56.70
59977;DHT22;45837;51.076;3.578;2023-02-03T06:24:45;19.00;57.00
59977;DHT22;45837;51.076;3.578;2023-02-03T06:27:13;19.00;56.70
59977;DHT22;45837;51.076;3.578;2023-02-03T06:29:39;19.10;56.70
59977;DHT22;45837;51.076;3.578;2023-02-03T06:32:05;19.20;56.70
59977;DHT22;45837;51.076;3.578;2023-02-03T06:34:31;19.30;56.60
59977;DHT22;45837;51.076;3.578;2023-02-03T06:36:57;19.30;57.00
59977;DHT22;45837;51.076;3.578;2023-02-03T06:39:23;19.30;57.00
59977;DHT22;45837;51.076;3.578;2023-02-03T06:41:49;19.40;57.00
59977;DHT22;45837;51.076;3.578;2023-02-03T06:44:16;19.50;56.90
59977;DHT22;45837;51.076;3.578;2023-02-03T06:46:42;19.60;56.80
59977;DHT22;45837;51.076;3.578;2023-02-03T06:49:08;19.60;56.80
59977;DHT22;45837;51.076;3.578;2023-02-03T06:51:34;19.70;56.80
59977;DHT22;45837;51.076;3.578;2023-02-03T06:54:00;19.80;56.60
59977;DHT22;45837;51.076;3.578;2023-02-03T06:56:28;19.90;56.50
59977;DHT22;45837;51.076;3.578;2023-02-03T06:58:54;20.00;56.60
59977;DHT22;45837;51.076;3.578;2023-02-03T07:01:20;20.00;56.50
59977;DHT22;45837;51.076;3.578;2023-02-03T07:03:46;20.10;56.40
59977;DHT22;45837;51.076;3.578;2023-02-03T07:06:12;20.20;56.20
59977;DHT22;45837;51.076;3.578;2023-02-03T07:08:38;20.20;56.00
59977;DHT22;45837;51.076;3.578;2023-02-03T07:11:04;20.30;56.00
59977;DHT22;45837;51.076;3.578;2023-02-03T07:13:30;20.20;55.60
59977;DHT22;45837;51.076;3.578;2023-02-03T07:15:56;20.40;55.40
59977;DHT22;45837;51.076;3.578;2023-02-03T07:18:21;20.40;55.30
59977;DHT22;45837;51.076;3.578;2023-02-03T07:20:50;20.50;55.30
59977;DHT22;45837;51.076;3.578;2023-02-03T07:23:16;20.50;55.20
59977;DHT22;45837;51.076;3.578;2023-02-03T07:25:41;20.50;55.10
59977;DHT22;45837;51.076;3.578;2023-02-03T07:28:07;20.60;55.00
59977;DHT22;45837;51.076;3.578;2023-02-03T07:30:33;20.60;55.00
59977;DHT22;45837;51.076;3.578;2023-02-03T07:32:59;20.50;54.90
59977;DHT22;45837;51.076;3.578;2023-02-03T07:35:25;20.50;55.00
59977;DHT22;45837;51.076;3.578;2023-02-03T07:37:51;20.50;54.90
59977;DHT22;45837;51.076;3.578;2023-02-03T07:40:17;20.60;54.80
59977;DHT22;45837;51.076;3.578;2023-02-03T07:42:44;20.50;54.70
59977;DHT22;45837;51.076;3.578;2023-02-03T07:45:10;20.50;54.70
59977;DHT22;45837;51.076;3.578;2023-02-03T07:47:37;20.40;54.60
59977;DHT22;45837;51.076;3.578;2023-02-03T07:50:03;20.60;54.60
59977;DHT22;45837;51.076;3.578;2023-02-03T07:52:29;20.50;54.50
59977;DHT22;45837;51.076;3.578;2023-02-03T07:54:54;20.40;54.60
59977;DHT22;45837;51.076;3.578;2023-02-03T07:57:20;20.40;54.60
59977;DHT22;45837;51.076;3.578;2023-02-03T07:59:46;20.40;54.70
59977;DHT22;45837;51.076;3.578;2023-02-03T08:02:12;20.40;54.70
59977;DHT22;45837;51.076;3.578;2023-02-03T08:04:38;20.30;54.60
59977;DHT22;45837;51.076;3.578;2023-02-03T08:07:04;20.30;54.70
59977;DHT22;45837;51.076;3.578;2023-02-03T08:09:30;20.30;54.60
59977;DHT22;45837;51.076;3.578;2023-02-03T08:11:56;20.30;54.60
59977;DHT22;45837;51.076;3.578;2023-02-03T08:14:21;20.20;54.50
59977;DHT22;45837;51.076;3.578;2023-02-03T08:16:48;20.20;54.50
59977;DHT22;45837;51.076;3.578;2023-02-03T08:19:14;20.30;54.50
59977;DHT22;45837;51.076;3.578;2023-02-03T08:21:39;20.30;54.50
59977;DHT22;45837;51.076;3.578;2023-02-03T08:24:05;20.10;54.50
59977;DHT22;45837;51.076;3.578;2023-02-03T08:26:31;20.20;54.50
59977;DHT22;45837;51.076;3.578;2023-02-03T08:28:57;20.20;54.60
59977;DHT22;45837;51.076;3.578;2023-02-03T08:31:23;20.10;54.60
59977;DHT22;45837;51.076;3.578;2023-02-03T08:33:49;20.10;54.60
59977;DHT22;45837;51.076;3.578;2023-02-03T08:36:14;20.00;54.60
59977;DHT22;45837;51.076;3.578;2023-02-03T08:38:40;20.00;54.70
59977;DHT22;45837;51.076;3.578;2023-02-03T08:41:12;19.80;54.60
59977;DHT22;45837;51.076;3.578;2023-02-03T08:43:38;19.90;54.70
59977;DHT22;45837;51.076;3.578;2023-02-03T08:46:05;19.90;54.70
59977;DHT22;45837;51.076;3.578;2023-02-03T08:48:31;19.90;54.70
59977;DHT22;45837;51.076;3.578;2023-02-03T08:50:57;19.90;54.90
59977;DHT22;45837;51.076;3.578;2023-02-03T08:53:23;19.90;54.80
59977;DHT22;45837;51.076;3.578;2023-02-03T08:55:49;19.90;54.90
59977;DHT22;45837;51.076;3.578;2023-02-03T08:58:15;19.90;54.80
59977;DHT22;45837;51.076;3.578;2023-02-03T09:00:41;19.80;54.70
59977;DHT22;45837;51.076;3.578;2023-02-03T09:03:06;19.90;54.80
59977;DHT22;45837;51.076;3.578;2023-02-03T09:05:32;19.80;54.80
59977;DHT22;45837;51.076;3.578;2023-02-03T09:07:58;19.80;54.80
59977;DHT22;45837;51.076;3.578;2023-02-03T09:10:24;19.80;54.70
59977;DHT22;45837;51.076;3.578;2023-02-03T09:12:50;19.80;54.80
59977;DHT22;45837;51.076;3.578;2023-02-03T09:15:16;19.80;54.80
59977;DHT22;45837;51.076;3.578;2023-02-03T09:17:42;19.80;54.70
59977;DHT22;45837;51.076;3.578;2023-02-03T09:20:08;19.60;54.60
59977;DHT22;45837;51.076;3.578;2023-02-03T09:22:34;19.80;54.60
59977;DHT22;45837;51.076;3.578;2023-02-03T09:25:00;19.80;54.70
59977;DHT22;45837;51.076;3.578;2023-02-03T09:27:25;19.70;54.70
59977;DHT22;45837;51.076;3.578;2023-02-03T09:29:51;19.70;54.60
59977;DHT22;45837;51.076;3.578;2023-02-03T09:32:17;19.70;54.60
59977;DHT22;45837;51.076;3.578;2023-02-03T09:34:43;19.70;54.80
59977;DHT22;45837;51.076;3.578;2023-02-03T09:37:09;19.70;54.60
59977;DHT22;45837;51.076;3.578;2023-02-03T09:39:34;19.70;54.70
59977;DHT22;45837;51.076;3.578;2023-02-03T09:47:18;19.70;55.10
59977;DHT22;45837;51.076;3.578;2023-02-03T09:49:47;19.70;54.60
59977;DHT22;45837;51.076;3.578;2023-02-03T09:57:18;19.70;54.60
59977;DHT22;45837;51.076;3.578;2023-02-03T09:59:44;19.70;54.50
59977;DHT22;45837;51.076;3.578;2023-02-03T10:07:16;19.70;54.60
59977;DHT22;45837;51.076;3.578;2023-02-03T10:15:33;19.70;54.60
59977;DHT22;45837;51.076;3.578;2023-02-03T10:18:06;19.60;54.60
59977;DHT22;45837;51.076;3.578;2023-02-03T10:23:08;19.60;54.70
59977;DHT22;45837;51.076;3.578;2023-02-03T10:25:39;19.60;55.20
59977;DHT22;45837;51.076;3.578;2023-02-03T10:28:12;19.60;54.60
59977;DHT22;45837;51.076;3.578;2023-02-03T10:30:40;19.60;54.60
59977;DHT22;45837;51.076;3.578;2023-02-03T10:33:10;19.60;54.60
59977;DHT22;45837;51.076;3.578;2023-02-03T10:35:48;19.60;54.60
59977;DHT22;45837;51.076;3.578;2023-02-03T10:38:16;19.60;54.60
59977;DHT22;45837;51.076;3.578;2023-02-03T10:40:43;19.60;54.70
59977;DHT22;45837;51.076;3.578;2023-02-03T10:43:08;19.60;54.80
59977;DHT22;45837;51.076;3.578;2023-02-03T10:45:53;19.30;54.50
59977;DHT22;45837;51.076;3.578;2023-02-03T10:48:19;19.60;54.80
59977;DHT22;45837;51.076;3.578;2023-02-03T10:50:47;19.60;54.90
59977;DHT22;45837;51.076;3.578;2023-02-03T10:55:41;19.60;54.90
59977;DHT22;45837;51.076;3.578;2023-02-03T10:58:10;19.60;55.00
59977;DHT22;45837;51.076;3.578;2023-02-03T11:00:39;19.60;54.90
59977;DHT22;45837;51.076;3.578;2023-02-03T11:06:06;19.50;54.80
59977;DHT22;45837;51.076;3.578;2023-02-03T11:08:33;19.50;54.90
59977;DHT22;45837;51.076;3.578;2023-02-03T11:11:04;19.50;55.00
59977;DHT22;45837;51.076;3.578;2023-02-03T11:13:30;19.50;54.90
59977;DHT22;45837;51.076;3.578;2023-02-03T11:15:57;19.50;54.90
59977;DHT22;45837;51.076;3.578;2023-02-03T11:21:31;19.40;55.00
59977;DHT22;45837;51.076;3.578;2023-02-03T11:26:23;19.50;55.00
59977;DHT22;45837;51.076;3.578;2023-02-03T11:28:50;19.40;54.90
59977;DHT22;45837;51.076;3.578;2023-02-03T11:31:19;19.40;54.90
59977;DHT22;45837;51.076;3.578;2023-02-03T11:33:47;19.40;54.90
59977;DHT22;45837;51.076;3.578;2023-02-03T11:36:13;19.40;55.00
59977;DHT22;45837;51.076;3.578;2023-02-03T11:38:39;19.50;55.00
59977;DHT22;45837;51.076;3.578;2023-02-03T11:41:13;19.40;55.00
59977;DHT22;45837;51.076;3.578;2023-02-03T11:43:40;19.40;54.90
59977;DHT22;45837;51.076;3.578;2023-02-03T11:46:05;19.40;55.00
59977;DHT22;45837;51.076;3.578;2023-02-03T11:48:35;19.40;55.00
59977;DHT22;45837;51.076;3.578;2023-02-03T12:04:05;19.30;54.80
59977;DHT22;45837;51.076;3.578;2023-02-03T12:09:13;19.40;54.80
59977;DHT22;45837;51.076;3.578;2023-02-03T12:11:51;19.40;54.80
59977;DHT22;45837;51.076;3.578;2023-02-03T12:14:24;19.30;54.80
59977;DHT22;45837;51.076;3.578;2023-02-03T12:16:57;19.40;54.80
59977;DHT22;45837;51.076;3.578;2023-02-03T12:25:39;19.30;54.80
59977;DHT22;45837;51.076;3.578;2023-02-03T12:30:31;19.30;55.30
59977;DHT22;45837;51.076;3.578;2023-02-03T12:33:01;19.30;54.70
59977;DHT22;45837;51.076;3.578;2023-02-03T12:35:33;19.30;54.80
59977;DHT22;45837;51.076;3.578;2023-02-03T12:38:02;19.40;54.80
59977;DHT22;45837;51.076;3.578;2023-02-03T12:40:39;19.30;54.80
59977;DHT22;45837;51.076;3.578;2023-02-03T12:45:41;19.30;54.90
59977;DHT22;45837;51.076;3.578;2023-02-03T12:48:14;19.30;54.80
59977;DHT22;45837;51.076;3.578;2023-02-03T12:53:38;19.30;54.80
59977;DHT22;45837;51.076;3.578;2023-02-03T12:56:10;19.30;55.00
59977;DHT22;45837;51.076;3.578;2023-02-03T13:01:15;19.30;54.80
59977;DHT22;45837;51.076;3.578;2023-02-03T13:08:59;19.20;54.90
59977;DHT22;45837;51.076;3.578;2023-02-03T13:14:27;19.20;54.80
59977;DHT22;45837;51.076;3.578;2023-02-03T13:16:57;19.20;54.80
59977;DHT22;45837;51.076;3.578;2023-02-03T13:19:27;19.20;54.80
59977;DHT22;45837;51.076;3.578;2023-02-03T13:21:53;19.20;54.90
59977;DHT22;45837;51.076;3.578;2023-02-03T13:24:20;19.20;54.80
59977;DHT22;45837;51.076;3.578;2023-02-03T13:26:59;19.20;54.80
59977;DHT22;45837;51.076;3.578;2023-02-03T13:32:03;19.20;54.80
59977;DHT22;45837;51.076;3.578;2023-02-03T13:42:24;19.10;54.80
59977;DHT22;45837;51.076;3.578;2023-02-03T13:47:36;19.10;55.00
59977;DHT22;45837;51.076;3.578;2023-02-03T13:50:06;19.10;54.80
59977;DHT22;45837;51.076;3.578;2023-02-03T13:52:36;19.10;54.80
59977;DHT22;45837;51.076;3.578;2023-02-03T13:55:02;19.10;54.80
59977;DHT22;45837;51.076;3.578;2023-02-03T13:57:33;19.10;54.90
59977;DHT22;45837;51.076;3.578;2023-02-03T13:59:59;19.10;54.90
59977;DHT22;45837;51.076;3.578;2023-02-03T14:07:33;19.10;54.70
59977;DHT22;45837;51.076;3.578;2023-02-03T14:12:37;19.10;54.70
59977;DHT22;45837;51.076;3.578;2023-02-03T14:15:18;19.10;54.80
59977;DHT22;45837;51.076;3.578;2023-02-03T14:20:33;19.10;54.80
59977;DHT22;45837;51.076;3.578;2023-02-03T14:25:32;19.00;54.80
59977;DHT22;45837;51.076;3.578;2023-02-03T14:28:03;19.00;54.60
59977;DHT22;45837;51.076;3.578;2023-02-03T14:30:30;19.00;54.60
59977;DHT22;45837;51.076;3.578;2023-02-03T14:32:59;19.00;54.60
59977;DHT22;45837;51.076;3.578;2023-02-03T14:35:28;19.00;54.70
59977;DHT22;45837;51.076;3.578;2023-02-03T14:38:05;19.00;54.70
59977;DHT22;45837;51.076;3.578;2023-02-03T14:40:33;19.00;54.80
59977;DHT22;45837;51.076;3.578;2023-02-03T14:58:34;18.90;54.80
59977;DHT22;45837;51.076;3.578;2023-02-03T15:01:04;19.00;54.80
59977;DHT22;45837;51.076;3.578;2023-02-03T15:03:31;18.90;54.70
59977;DHT22;45837;51.076;3.578;2023-02-03T15:06:00;18.90;54.70
59977;DHT22;45837;51.076;3.578;2023-02-03T15:08:37;18.90;54.90
59977;DHT22;45837;51.076;3.578;2023-02-03T15:13:40;18.90;54.80
59977;DHT22;45837;51.076;3.578;2023-02-03T15:16:09;19.00;54.80
59977;DHT22;45837;51.076;3.578;2023-02-03T15:18:37;19.00;54.80
59977;DHT22;45837;51.076;3.578;2023-02-03T15:21:05;18.90;54.70
59977;DHT22;45837;51.076;3.578;2023-02-03T15:23:38;18.90;54.90
59977;DHT22;45837;51.076;3.578;2023-02-03T15:26:11;18.90;54.90
59977;DHT22;45837;51.076;3.578;2023-02-03T15:28:37;18.90;54.90
59977;DHT22;45837;51.076;3.578;2023-02-03T15:33:29;18.90;54.90
59977;DHT22;45837;51.076;3.578;2023-02-03T15:36:00;18.90;54.90
59977;DHT22;45837;51.076;3.578;2023-02-03T15:38:41;18.90;54.90
59977;DHT22;45837;51.076;3.578;2023-02-03T15:41:30;18.90;54.90
59977;DHT22;45837;51.076;3.578;2023-02-03T15:43:55;18.90;54.90
59977;DHT22;45837;51.076;3.578;2023-02-03T15:46:25;18.90;55.00
59977;DHT22;45837;51.076;3.578;2023-02-03T15:49:06;18.90;54.90
59977;DHT22;45837;51.076;3.578;2023-02-03T15:51:35;18.80;54.90
59977;DHT22;45837;51.076;3.578;2023-02-03T15:54:03;18.80;54.90
59977;DHT22;45837;51.076;3.578;2023-02-03T15:59:03;18.80;54.80
59977;DHT22;45837;51.076;3.578;2023-02-03T16:01:29;18.80;54.80
59977;DHT22;45837;51.076;3.578;2023-02-03T16:03:55;18.80;54.90
59977;DHT22;45837;51.076;3.578;2023-02-03T16:08:52;18.80;54.80
59977;DHT22;45837;51.076;3.578;2023-02-03T16:14:21;18.80;54.80
59977;DHT22;45837;51.076;3.578;2023-02-03T16:16:55;18.80;54.80
59977;DHT22;45837;51.076;3.578;2023-02-03T16:19:21;18.80;54.80
59977;DHT22;45837;51.076;3.578;2023-02-03T16:29:42;18.80;54.80
59977;DHT22;45837;51.076;3.578;2023-02-03T16:32:27;18.70;54.70
59977;DHT22;45837;51.076;3.578;2023-02-03T16:35:11;18.70;54.80
59977;DHT22;45837;51.076;3.578;2023-02-03T16:37:55;18.70;54.90
59977;DHT22;45837;51.076;3.578;2023-02-03T16:40:39;18.80;55.00
59977;DHT22;45837;51.076;3.578;2023-02-03T16:43:23;18.80;55.00
59977;DHT22;45837;51.076;3.578;2023-02-03T16:46:08;18.80;55.00
59977;DHT22;45837;51.076;3.578;2023-02-03T16:48:54;18.80;54.90
59977;DHT22;45837;51.076;3.578;2023-02-03T16:51:38;18.80;54.70
59977;DHT22;45837;51.076;3.578;2023-02-03T16:54:05;18.90;54.80
59977;DHT22;45837;51.076;3.578;2023-02-03T16:56:31;19.00;55.00
59977;DHT22;45837;51.076;3.578;2023-02-03T16:58:57;19.00;55.00
59977;DHT22;45837;51.076;3.578;2023-02-03T17:01:22;19.00;55.10
59977;DHT22;45837;51.076;3.578;2023-02-03T17:03:48;19.00;55.20
59977;DHT22;45837;51.076;3.578;2023-02-03T17:06:15;19.10;55.10
59977;DHT22;45837;51.076;3.578;2023-02-03T17:08:40;19.20;54.80
59977;DHT22;45837;51.076;3.578;2023-02-03T17:11:12;19.30;54.80
59977;DHT22;45837;51.076;3.578;2023-02-03T17:13:40;19.40;56.80
59977;DHT22;45837;51.076;3.578;2023-02-03T17:16:17;19.50;59.00
59977;DHT22;45837;51.076;3.578;2023-02-03T17:18:43;19.60;58.80
59977;DHT22;45837;51.076;3.578;2023-02-03T17:21:11;19.80;58.90
59977;DHT22;45837;51.076;3.578;2023-02-03T17:23:37;19.80;59.30
59977;DHT22;45837;51.076;3.578;2023-02-03T17:26:03;20.00;59.60
59977;DHT22;45837;51.076;3.578;2023-02-03T17:28:28;20.10;59.60
59977;DHT22;45837;51.076;3.578;2023-02-03T17:30:55;20.20;59.50
59977;DHT22;45837;51.076;3.578;2023-02-03T17:33:21;20.30;59.20
59977;DHT22;45837;51.076;3.578;2023-02-03T17:35:46;20.20;58.60
59977;DHT22;45837;51.076;3.578;2023-02-03T17:38:12;20.40;58.50
59977;DHT22;45837;51.076;3.578;2023-02-03T17:40:41;20.40;58.30
59977;DHT22;45837;51.076;3.578;2023-02-03T17:43:08;20.50;58.10
59977;DHT22;45837;51.076;3.578;2023-02-03T17:45:38;20.50;58.10
59977;DHT22;45837;51.076;3.578;2023-02-03T17:48:03;20.60;57.90
59977;DHT22;45837;51.076;3.578;2023-02-03T17:50:29;20.60;57.80
59977;DHT22;45837;51.076;3.578;2023-02-03T17:52:55;20.70;57.70
59977;DHT22;45837;51.076;3.578;2023-02-03T17:55:21;20.70;57.30
59977;DHT22;45837;51.076;3.578;2023-02-03T17:57:47;20.80;57.20
59977;DHT22;45837;51.076;3.578;2023-02-03T18:00:12;20.80;57.10
59977;DHT22;45837;51.076;3.578;2023-02-03T18:02:38;20.00;56.60
59977;DHT22;45837;51.076;3.578;2023-02-03T18:05:04;20.80;57.00
59977;DHT22;45837;51.076;3.578;2023-02-03T18:07:30;20.70;57.00
59977;DHT22;45837;51.076;3.578;2023-02-03T18:09:56;20.70;57.20
59977;DHT22;45837;51.076;3.578;2023-02-03T18:12:21;20.80;57.20
59977;DHT22;45837;51.076;3.578;2023-02-03T18:14:47;20.80;57.90
59977;DHT22;45837;51.076;3.578;2023-02-03T18:17:13;20.80;58.40